Time;durP1;ratioP1;P1;durP2;ratioP2;P2;SDS_P1;SDS_P2;PMS_P1;PMS_P2;Temp;Humidity;BMP_temperature;BMP_pressure;BME280_temperature;BME280_humidity;BME280_pressure;Samples;Min_cycle;Max_cycle;Signal;HPM_P1;HPM_P2
2023/07/25 00:00:10;;;;;;;13.55;9.38;;;;;;;16.67;100.00;100122.34;5034255;28;20080;-64
2023/07/25 00:02:36;;;;;;;11.27;8.85;;;;;;;16.68;100.00;100116.19;5035206;28;20045;-65
2023/07/25 00:05:05;;;;;;;10.95;8.00;;;;;;;16.70;100.00;100121.34;5033334;28;20036;-64
2023/07/25 00:07:30;;;;;;;15.88;9.90;;;;;;;16.67;100.00;100119.72;5054778;28;20585;-64
2023/07/25 00:09:56;;;;;;;10.18;8.63;;;;;;;16.67;100.00;100117.13;5042558;28;20045;-64
2023/07/25 00:12:22;;;;;;;11.00;7.68;;;;;;;16.68;100.00;100123.19;5036077;28;20036;-63
2023/07/25 00:14:48;;;;;;;12.38;8.95;;;;;;;16.68;100.00;100124.00;5034810;28;20537;-64
2023/07/25 00:17:13;;;;;;;12.38;8.60;;;;;;;16.68;100.00;100131.00;5034376;28;20498;-64
2023/07/25 00:19:39;;;;;;;12.27;8.27;;;;;;;16.68;100.00;100126.63;5040607;28;20035;-64
2023/07/25 00:22:04;;;;;;;13.10;8.27;;;;;;;16.69;100.00;100130.09;5038753;28;20071;-64
2023/07/25 00:24:29;;;;;;;13.77;7.90;;;;;;;16.69;100.00;100127.47;5036819;28;20033;-64
2023/07/25 00:26:55;;;;;;;11.43;8.07;;;;;;;16.68;100.00;100126.63;5034097;28;20045;-64
2023/07/25 00:29:20;;;;;;;9.50;6.68;;;;;;;16.69;100.00;100128.31;5040274;28;20792;-64
2023/07/25 00:31:45;;;;;;;10.80;6.68;;;;;;;16.67;99.67;100134.53;5036739;28;20580;-64
2023/07/25 00:34:11;;;;;;;10.13;6.03;;;;;;;16.66;99.52;100125.84;5038746;28;20128;-64
2023/07/25 00:36:36;;;;;;;8.80;6.50;;;;;;;16.67;99.43;100124.94;5031104;28;20103;-64
2023/07/25 00:39:02;;;;;;;9.48;6.13;;;;;;;16.66;99.00;100128.47;5042834;28;20123;-63
2023/07/25 00:41:27;;;;;;;10.00;5.03;;;;;;;16.65;98.24;100123.31;5037158;28;20033;-63
2023/07/25 00:43:52;;;;;;;10.63;4.53;;;;;;;16.63;97.86;100125.97;5036854;28;20126;-63
2023/07/25 00:46:18;;;;;;;8.15;5.18;;;;;;;16.60;98.05;100117.44;5030551;28;20064;-64
2023/07/25 00:48:44;;;;;;;8.07;4.15;;;;;;;16.61;97.51;100122.59;5045690;28;20041;-63
2023/07/25 00:51:10;;;;;;;8.63;4.00;;;;;;;16.60;97.00;100117.44;5043542;28;20043;-63
2023/07/25 00:53:36;;;;;;;6.60;4.10;;;;;;;16.56;96.40;100111.50;5037365;28;20045;-63
2023/07/25 00:56:01;;;;;;;5.93;3.10;;;;;;;16.57;96.39;100109.72;5034347;28;20043;-63
2023/07/25 00:58:28;;;;;;;9.45;3.40;;;;;;;16.51;94.57;100103.03;5033659;28;20032;-63
2023/07/25 01:01:01;;;;;;;7.38;3.30;;;;;;;16.48;93.31;100097.09;5034062;28;20033;-63
2023/07/25 01:03:27;;;;;;;10.15;3.60;;;;;;;16.49;92.75;100101.41;5033158;28;20041;-63
2023/07/25 01:05:53;;;;;;;7.15;3.50;;;;;;;16.46;92.53;100094.56;5035619;28;20044;-63
2023/07/25 01:08:18;;;;;;;8.48;3.65;;;;;;;16.41;92.87;100091.31;5037486;28;20806;-63
2023/07/25 01:10:44;;;;;;;8.80;3.10;;;;;;;16.37;92.94;100087.13;5039368;28;20411;-64
2023/07/25 01:13:09;;;;;;;6.05;3.03;;;;;;;16.33;93.46;100077.72;5029907;28;20040;-63
2023/07/25 01:15:36;;;;;;;5.88;3.13;;;;;;;16.28;93.92;100072.72;5029328;28;20043;-64
2023/07/25 01:18:01;;;;;;;7.68;3.70;;;;;;;16.21;94.15;100076.47;5032194;28;20076;-63
2023/07/25 01:20:28;;;;;;;13.38;3.90;;;;;;;16.18;94.74;100079.22;5037254;28;20132;-64
2023/07/25 01:22:54;;;;;;;4.90;2.95;;;;;;;16.13;94.75;100085.53;5034328;28;20044;-64
2023/07/25 01:25:20;;;;;;;7.53;3.38;;;;;;;16.05;95.22;100069.38;5034278;28;20029;-64
2023/07/25 01:27:45;;;;;;;6.53;3.25;;;;;;;15.97;95.81;100072.28;5031373;28;20037;-64
2023/07/25 01:30:11;;;;;;;4.85;3.20;;;;;;;15.92;95.98;100068.19;5029808;28;20386;-64
2023/07/25 01:32:36;;;;;;;7.22;3.28;;;;;;;15.88;96.30;100080.50;5038578;28;20774;-63
2023/07/25 01:35:02;;;;;;;6.93;3.20;;;;;;;15.87;96.49;100075.34;5036017;28;20032;-63
2023/07/25 01:37:28;;;;;;;6.35;3.25;;;;;;;15.86;97.20;100076.25;5036166;28;20025;-63
2023/07/25 01:39:53;;;;;;;7.55;2.75;;;;;;;15.86;97.39;100078.84;5033682;28;20040;-64
2023/07/25 01:42:19;;;;;;;7.18;3.00;;;;;;;15.87;97.22;100076.22;5032367;28;20037;-64
2023/07/25 01:44:44;;;;;;;7.47;3.08;;;;;;;15.89;97.68;100074.38;5035144;28;20037;-63
2023/07/25 01:47:09;;;;;;;9.25;3.20;;;;;;;15.91;97.03;100076.94;5035261;28;20067;-63
2023/07/25 01:49:35;;;;;;;5.63;2.92;;;;;;;15.91;97.27;100074.31;5035644;28;20097;-63
2023/07/25 01:52:00;;;;;;;7.85;3.03;;;;;;;15.91;97.38;100080.38;5040722;28;20082;-63
2023/07/25 01:54:25;;;;;;;6.78;3.70;;;;;;;15.92;97.37;100079.47;5040714;28;20093;-64
2023/07/25 01:56:51;;;;;;;6.93;3.25;;;;;;;15.92;97.26;100082.06;5035053;28;20723;-64
2023/07/25 01:59:17;;;;;;;10.48;3.25;;;;;;;15.95;97.63;100076.72;5033440;28;20056;-63
2023/07/25 02:01:42;;;;;;;5.00;2.75;;;;;;;15.94;97.35;100075.03;5032496;28;20040;-64
2023/07/25 02:04:08;;;;;;;7.93;4.15;;;;;;;15.98;97.59;100070.53;5037700;28;20086;-63
2023/07/25 02:06:33;;;;;;;6.43;3.53;;;;;;;15.96;96.99;100067.16;5033483;28;20048;-63
2023/07/25 02:08:58;;;;;;;8.77;3.60;;;;;;;15.94;97.18;100059.38;5039320;28;20774;-64
2023/07/25 02:11:24;;;;;;;8.10;3.40;;;;;;;15.92;96.81;100060.38;5037143;28;20096;-63
2023/07/25 02:13:49;;;;;;;7.72;3.20;;;;;;;15.91;97.19;100062.13;5040683;28;20029;-63
2023/07/25 02:16:15;;;;;;;6.25;3.35;;;;;;;15.87;97.38;100059.72;5036965;28;20082;-63
2023/07/25 02:18:40;;;;;;;6.07;3.40;;;;;;;15.85;97.55;100059.75;5034347;28;20033;-64
2023/07/25 02:21:05;;;;;;;6.53;2.97;;;;;;;15.84;97.63;100052.88;5039862;28;20041;-63
2023/07/25 02:23:31;;;;;;;9.50;3.28;;;;;;;15.85;97.83;100064.97;5037361;28;20125;-63
2023/07/25 02:25:56;;;;;;;7.65;3.72;;;;;;;15.87;97.76;100071.00;5038832;28;20094;-63
2023/07/25 02:28:22;;;;;;;6.18;2.92;;;;;;;15.90;97.91;100075.22;5038729;28;20674;-64
2023/07/25 02:30:47;;;;;;;5.38;3.65;;;;;;;15.90;97.60;100073.47;5034551;28;20045;-63
2023/07/25 02:33:14;;;;;;;9.35;3.63;;;;;;;15.90;97.60;100072.63;5040819;28;20040;-63
2023/07/25 02:35:39;;;;;;;6.20;3.60;;;;;;;15.92;97.38;100063.81;5042050;28;20082;-64
2023/07/25 02:38:04;;;;;;;8.68;4.32;;;;;;;15.93;97.12;100062.94;5036932;28;20028;-63
2023/07/25 02:40:30;;;;;;;7.60;3.60;;;;;;;15.95;97.28;100066.31;5039103;28;20033;-64
2023/07/25 02:42:55;;;;;;;8.82;4.40;;;;;;;15.94;96.94;100066.38;5033937;28;20033;-64
2023/07/25 02:45:21;;;;;;;11.45;3.90;;;;;;;15.94;97.03;100069.81;5036284;28;20040;-64
2023/07/25 02:47:46;;;;;;;6.10;3.80;;;;;;;15.94;96.80;100074.19;5041611;28;20062;-63
2023/07/25 02:50:11;;;;;;;4.88;3.45;;;;;;;15.93;97.08;100065.53;5041594;28;20104;-63
2023/07/25 02:52:36;;;;;;;7.32;4.25;;;;;;;15.93;97.05;100060.31;5041734;28;20400;-64
2023/07/25 02:55:03;;;;;;;9.57;3.92;;;;;;;15.91;97.63;100054.31;5024364;28;20058;-64
2023/07/25 02:57:28;;;;;;;7.85;4.80;;;;;;;15.90;97.18;100055.22;5040869;28;20106;-64
2023/07/25 02:59:54;;;;;;;6.68;4.40;;;;;;;15.88;97.54;100046.59;5037252;28;20037;-64
2023/07/25 03:02:19;;;;;;;9.75;4.78;;;;;;;15.86;97.98;100058.00;5032212;28;20047;-64
2023/07/25 03:04:44;;;;;;;8.18;4.38;;;;;;;15.86;98.07;100063.22;5040217;28;20056;-64
2023/07/25 03:07:10;;;;;;;9.52;4.57;;;;;;;15.84;97.91;100062.44;5038543;28;20084;-64
2023/07/25 03:09:37;;;;;;;9.73;4.82;;;;;;;15.83;98.20;100061.59;5035625;28;20627;-64
2023/07/25 03:12:03;;;;;;;11.30;4.57;;;;;;;15.82;98.46;100057.28;5037932;28;20174;-64
2023/07/25 03:14:28;;;;;;;10.13;4.63;;;;;;;15.81;98.50;100065.19;5035270;28;20123;-64
2023/07/25 03:16:54;;;;;;;6.70;4.75;;;;;;;15.79;98.81;100065.22;5039141;28;20033;-64
2023/07/25 03:19:19;;;;;;;8.90;5.25;;;;;;;15.80;99.03;100066.06;5041260;28;20040;-64
2023/07/25 03:21:44;;;;;;;12.20;5.68;;;;;;;15.79;98.84;100075.66;5036699;28;20033;-64
2023/07/25 03:24:10;;;;;;;13.18;6.00;;;;;;;15.78;98.54;100063.56;5034097;28;20065;-64
2023/07/25 03:26:35;;;;;;;10.02;5.32;;;;;;;15.78;98.79;100058.34;5035037;28;20756;-64
2023/07/25 03:29:01;;;;;;;10.45;6.72;;;;;;;15.78;98.72;100062.69;5038403;28;20132;-64
2023/07/25 03:31:26;;;;;;;8.98;5.88;;;;;;;15.80;98.41;100060.88;5043084;28;20040;-63
2023/07/25 03:33:52;;;;;;;12.23;6.05;;;;;;;15.81;98.75;100063.44;5032345;28;20106;-64
2023/07/25 03:36:17;;;;;;;8.68;5.95;;;;;;;15.82;98.41;100061.69;5035320;28;20387;-64
2023/07/25 03:38:42;;;;;;;10.13;5.30;;;;;;;15.85;98.85;100061.56;5034467;28;20064;-64
2023/07/25 03:41:08;;;;;;;22.25;7.15;;;;;;;15.85;98.29;100061.56;5036562;28;20556;-63
2023/07/25 03:43:33;;;;;;;9.75;6.35;;;;;;;15.88;98.49;100064.03;5040724;28;20825;-64
2023/07/25 03:45:58;;;;;;;9.50;6.60;;;;;;;15.87;98.50;100060.56;5035438;28;20061;-64
2023/07/25 03:48:24;;;;;;;9.63;6.25;;;;;;;15.89;97.72;100058.75;5036274;28;20355;-64
2023/07/25 03:50:49;;;;;;;13.15;6.22;;;;;;;15.89;97.72;100063.09;5037118;28;20384;-63
2023/07/25 03:53:15;;;;;;;11.50;6.68;;;;;;;15.86;96.71;100063.22;5040309;28;20437;-64
2023/07/25 03:55:40;;;;;;;11.73;6.88;;;;;;;15.84;95.42;100059.84;5029472;28;20040;-64
2023/07/25 03:58:05;;;;;;;12.40;6.63;;;;;;;15.86;95.94;100058.00;5033211;28;20041;-64
2023/07/25 04:00:31;;;;;;;11.65;6.50;;;;;;;15.87;96.14;100057.09;5039262;28;20044;-64
2023/07/25 04:02:56;;;;;;;9.05;6.20;;;;;;;15.84;95.44;100057.22;5037109;28;20429;-63
2023/07/25 04:05:21;;;;;;;12.07;6.47;;;;;;;15.83;95.25;100063.34;5031289;28;20414;-63
2023/07/25 04:07:47;;;;;;;12.10;5.97;;;;;;;15.83;94.46;100055.53;5035401;28;20150;-64
2023/07/25 04:10:12;;;;;;;13.60;5.38;;;;;;;15.78;93.57;100052.28;5032366;28;20167;-63
2023/07/25 04:12:37;;;;;;;11.43;4.95;;;;;;;15.76;93.28;100052.34;5037509;28;20052;-64
2023/07/25 04:15:03;;;;;;;14.43;5.82;;;;;;;15.75;92.74;100046.28;5035847;28;20406;-64
2023/07/25 04:17:29;;;;;;;12.75;5.60;;;;;;;15.73;93.06;100045.47;5037074;28;20843;-64
2023/07/25 04:19:54;;;;;;;10.70;5.28;;;;;;;15.73;93.56;100048.09;5034617;28;20037;-64
2023/07/25 04:22:19;;;;;;;10.15;5.22;;;;;;;15.73;93.63;100058.50;5039892;28;20040;-64
2023/07/25 04:24:45;;;;;;;7.82;5.05;;;;;;;15.71;93.88;100052.53;5041988;28;20068;-63
2023/07/25 04:27:10;;;;;;;13.68;5.85;;;;;;;15.72;93.79;100050.78;5035379;28;20064;-64
2023/07/25 04:29:35;;;;;;;10.43;5.70;;;;;;;15.73;94.24;100050.69;5032976;28;20067;-63
2023/07/25 04:32:01;;;;;;;8.18;5.80;;;;;;;15.72;93.90;100045.56;5037614;28;20088;-64
2023/07/25 04:34:26;;;;;;;11.38;5.15;;;;;;;15.72;93.36;100041.19;5036062;28;20106;-64
2023/07/25 04:36:51;;;;;;;10.38;5.55;;;;;;;15.72;93.83;100043.81;5035349;28;20036;-64
2023/07/25 04:39:17;;;;;;;12.88;5.53;;;;;;;15.76;94.27;100055.78;5036065;28;20777;-64
2023/07/25 04:41:42;;;;;;;11.80;5.63;;;;;;;15.78;93.39;100050.53;5033494;28;20045;-63
2023/07/25 04:44:08;;;;;;;9.50;5.70;;;;;;;15.86;93.46;100048.44;5038207;28;20048;-64
2023/07/25 04:46:33;;;;;;;12.55;5.55;;;;;;;15.90;92.69;100043.94;5030482;28;20124;-64
2023/07/25 04:48:58;;;;;;;8.55;5.47;;;;;;;15.97;92.64;100035.81;5037641;28;20033;-64
2023/07/25 04:51:24;;;;;;;9.23;5.97;;;;;;;16.00;92.47;100034.84;5039807;28;20444;-63
2023/07/25 04:53:49;;;;;;;12.82;6.15;;;;;;;16.06;92.34;100035.41;5040422;28;20091;-63
2023/07/25 04:56:15;;;;;;;9.80;5.93;;;;;;;16.22;92.45;100033.00;5036138;28;20025;-63
2023/07/25 04:58:43;;;;;;;11.80;6.20;;;;;;;16.29;90.72;100031.84;5040973;28;20124;-63
2023/07/25 05:01:09;;;;;;;11.98;5.93;;;;;;;16.32;90.54;100027.31;5029299;28;20048;-63
2023/07/25 05:03:35;;;;;;;11.65;6.10;;;;;;;16.44;90.74;100027.72;5032077;28;20044;-63
2023/07/25 05:06:00;;;;;;;15.35;6.45;;;;;;;16.47;90.67;100025.81;5042325;28;20047;-63
2023/07/25 05:08:26;;;;;;;12.27;5.72;;;;;;;16.68;89.99;100017.00;5047143;28;20051;-64
2023/07/25 05:10:53;;;;;;;8.80;5.75;;;;;;;16.76;88.64;100017.53;5037273;28;20148;-64
2023/07/25 05:13:19;;;;;;;12.05;5.22;;;;;;;16.61;87.49;100018.22;5036402;28;20933;-64
2023/07/25 05:15:44;;;;;;;12.18;5.38;;;;;;;16.78;88.38;100018.34;5030199;28;20119;-63
2023/07/25 05:18:10;;;;;;;16.67;5.80;;;;;;;16.66;87.94;100025.84;5040333;28;20083;-63
2023/07/25 05:20:35;;;;;;;8.20;4.82;;;;;;;16.66;87.20;100026.69;5039111;28;20053;-64
2023/07/25 05:23:00;;;;;;;12.05;4.93;;;;;;;16.51;86.91;100027.38;5036741;28;20032;-63
2023/07/25 05:25:26;;;;;;;13.63;5.60;;;;;;;16.37;86.28;100026.28;5040496;28;20080;-63
2023/07/25 05:27:51;;;;;;;9.95;4.85;;;;;;;16.35;87.35;100035.94;5035882;28;20044;-63
2023/07/25 05:30:17;;;;;;;8.98;4.38;;;;;;;16.26;87.01;100035.44;5032854;28;20056;-63
2023/07/25 05:32:42;;;;;;;8.70;4.28;;;;;;;16.17;86.25;100030.63;5034782;28;20802;-63
2023/07/25 05:35:08;;;;;;;9.00;4.15;;;;;;;16.10;86.06;100036.13;5030599;28;20035;-63
2023/07/25 05:37:38;;;;;;;10.35;4.13;;;;;;;16.11;86.30;100032.63;5037505;28;20730;-63
2023/07/25 05:40:05;;;;;;;9.73;5.53;;;;;;;16.13;86.33;100044.69;5032830;28;20808;-64
2023/07/25 05:42:30;;;;;;;9.10;4.75;;;;;;;16.14;85.85;100042.94;5028526;28;20045;-63
2023/07/25 05:44:57;;;;;;;10.25;4.25;;;;;;;16.13;85.37;100046.44;5036128;28;20766;-63
2023/07/25 05:47:22;;;;;;;11.77;4.70;;;;;;;16.15;85.81;100052.44;5038331;28;20033;-63
2023/07/25 05:49:48;;;;;;;9.15;4.40;;;;;;;16.19;85.40;100048.78;5037678;28;20031;-63
2023/07/25 05:52:13;;;;;;;9.68;3.78;;;;;;;16.19;85.44;100049.63;5031374;28;20120;-64
2023/07/25 05:54:39;;;;;;;10.85;4.50;;;;;;;16.19;84.90;100057.47;5030762;28;20080;-63
2023/07/25 05:57:05;;;;;;;7.30;3.88;;;;;;;16.19;85.07;100056.59;5030665;28;20045;-64
2023/07/25 05:59:30;;;;;;;9.65;3.80;;;;;;;16.18;85.00;100063.56;5031705;28;20410;-63
2023/07/25 06:01:56;;;;;;;6.63;4.70;;;;;;;16.18;84.72;100070.53;5033410;28;20076;-64
2023/07/25 06:04:21;;;;;;;9.73;4.03;;;;;;;16.14;84.57;100069.00;5032531;28;20051;-63
2023/07/25 06:06:47;;;;;;;8.45;4.30;;;;;;;16.17;84.57;100071.47;5031723;28;20037;-63
2023/07/25 06:09:12;;;;;;;13.55;4.10;;;;;;;16.28;85.32;100077.09;5037440;28;20045;-64
2023/07/25 06:11:38;;;;;;;10.50;3.92;;;;;;;16.30;83.81;100078.72;5033254;28;20056;-63
2023/07/25 06:14:03;;;;;;;9.73;4.03;;;;;;;16.28;83.27;100074.47;5031332;28;21049;-63
2023/07/25 06:16:29;;;;;;;8.38;3.90;;;;;;;16.26;83.43;100084.13;5029558;28;20725;-61
2023/07/25 06:18:54;;;;;;;9.73;3.85;;;;;;;16.26;82.57;100079.78;5030590;28;20044;-61
2023/07/25 06:21:20;;;;;;;9.00;3.45;;;;;;;16.30;81.25;100070.88;5033363;28;20042;-60
2023/07/25 06:23:45;;;;;;;8.80;3.55;;;;;;;16.31;80.43;100076.94;5037673;28;20805;-61
2023/07/25 06:26:10;;;;;;;9.27;4.00;;;;;;;16.31;80.92;100085.63;5034008;28;20025;-61
2023/07/25 06:28:37;;;;;;;8.50;3.50;;;;;;;16.31;80.18;100071.75;5038068;28;20056;-61
2023/07/25 06:31:02;;;;;;;12.02;3.42;;;;;;;16.30;80.22;100065.66;5036364;28;20041;-60
2023/07/25 06:33:28;;;;;;;7.15;3.25;;;;;;;16.28;80.53;100074.47;5037423;28;20043;-60
2023/07/25 06:35:53;;;;;;;7.35;2.88;;;;;;;16.24;80.13;100065.94;5036258;28;20757;-60
2023/07/25 06:38:18;;;;;;;9.50;3.15;;;;;;;16.20;79.81;100073.97;5036245;28;20830;-61
2023/07/25 06:40:44;;;;;;;9.15;3.13;;;;;;;16.19;79.14;100072.25;5036312;28;20067;-60
2023/07/25 06:43:09;;;;;;;5.50;2.58;;;;;;;16.23;78.83;100066.88;5035920;28;20036;-60
2023/07/25 06:45:34;;;;;;;7.90;2.50;;;;;;;16.26;78.86;100069.34;5035864;28;20800;-61
2023/07/25 06:48:00;;;;;;;8.65;3.00;;;;;;;16.36;80.25;100084.56;5038801;28;20041;-61
2023/07/25 06:50:25;;;;;;;4.43;2.65;;;;;;;16.39;79.25;100076.59;5037462;28;20823;-61
2023/07/25 06:52:50;;;;;;;8.70;3.13;;;;;;;16.40;78.96;100083.53;5037432;28;20048;-61
2023/07/25 06:55:19;;;;;;;10.90;3.72;;;;;;;16.40;78.70;100079.16;5038103;28;20029;-62
2023/07/25 06:57:44;;;;;;;7.75;3.15;;;;;;;16.51;79.01;100087.38;5034282;28;20041;-61
2023/07/25 07:00:10;;;;;;;5.93;2.90;;;;;;;16.69;79.27;100093.53;5034425;28;20399;-64
2023/07/25 07:02:36;;;;;;;6.10;3.13;;;;;;;16.67;79.03;100091.03;5033062;28;20095;-66
2023/07/25 07:05:01;;;;;;;6.60;3.83;;;;;;;16.70;77.62;100083.06;5035587;28;20136;-64
2023/07/25 07:07:26;;;;;;;8.85;3.35;;;;;;;16.85;77.47;100078.94;5035787;28;20155;-64
2023/07/25 07:09:52;;;;;;;7.43;3.60;;;;;;;16.76;76.83;100081.94;5039669;28;20044;-65
2023/07/25 07:12:17;;;;;;;9.88;3.40;;;;;;;16.81;76.66;100088.66;5038173;28;20036;-65
2023/07/25 07:14:43;;;;;;;6.75;2.90;;;;;;;16.86;76.94;100091.91;5037436;28;20041;-65
2023/07/25 07:17:08;;;;;;;11.80;3.42;;;;;;;17.07;76.80;100078.81;5032694;28;20138;-64
2023/07/25 07:19:33;;;;;;;8.70;2.78;;;;;;;17.00;74.37;100061.75;5037545;28;20033;-63
2023/07/25 07:21:59;;;;;;;10.50;3.30;;;;;;;16.93;74.48;100075.97;5037021;28;21685;-65
2023/07/25 07:24:24;;;;;;;8.02;3.53;;;;;;;17.04;74.33;100074.56;5036720;28;20555;-65
2023/07/25 07:26:49;;;;;;;8.35;3.10;;;;;;;17.10;73.86;100073.44;5033708;28;20052;-65
2023/07/25 07:29:15;;;;;;;8.50;2.88;;;;;;;17.07;73.45;100068.34;5031645;28;20056;-64
2023/07/25 07:31:40;;;;;;;8.13;3.20;;;;;;;17.10;73.08;100068.22;5032625;28;20059;-65
2023/07/25 07:34:16;;;;;;;8.10;2.90;;;;;;;17.30;72.09;100061.19;5037264;28;20046;-64
2023/07/25 07:36:42;;;;;;;10.45;2.83;;;;;;;17.19;71.08;100052.13;5035830;28;20098;-64
2023/07/25 07:39:08;;;;;;;9.27;2.65;;;;;;;17.19;70.70;100052.13;5034431;28;21032;-63
2023/07/25 07:41:34;;;;;;;6.32;2.55;;;;;;;17.23;71.05;100058.91;5037919;28;20041;-65
2023/07/25 07:44:00;;;;;;;5.13;2.58;;;;;;;17.29;71.88;100074.28;5034447;28;20112;-64
2023/07/25 07:46:32;;;;;;;7.03;2.47;;;;;;;17.36;71.11;100060.03;5033523;28;20039;-64
2023/07/25 07:48:58;;;;;;;5.32;2.78;;;;;;;17.50;71.28;100068.06;5033813;28;20109;-65
2023/07/25 07:51:24;;;;;;;5.43;2.47;;;;;;;17.39;69.97;100058.09;5041175;28;20036;-65
2023/07/25 07:53:50;;;;;;;5.60;2.47;;;;;;;17.39;69.95;100062.50;5042612;28;20521;-65
2023/07/25 07:56:16;;;;;;;11.27;3.53;;;;;;;17.38;69.84;100064.28;5036662;28;20673;-65
2023/07/25 07:58:41;;;;;;;6.57;2.78;;;;;;;17.60;70.90;100084.97;5037136;28;20089;-65
2023/07/25 08:01:17;;;;;;;5.25;2.75;;;;;;;17.64;70.48;100073.47;5036077;28;20044;-65
2023/07/25 08:03:46;;;;;;;4.78;2.67;;;;;;;17.75;69.90;100065.13;5035523;28;20037;-64
2023/07/25 08:06:11;;;;;;;8.63;3.22;;;;;;;17.90;69.04;100052.16;5035582;28;20537;-65
2023/07/25 08:08:37;;;;;;;9.60;2.97;;;;;;;17.97;68.25;100039.63;5036100;28;20055;-65
2023/07/25 08:11:03;;;;;;;4.63;2.75;;;;;;;17.89;66.89;100031.34;5037850;28;20103;-64
2023/07/25 08:13:28;;;;;;;6.68;2.65;;;;;;;17.91;67.46;100039.94;5042810;28;20043;-65
2023/07/25 08:15:54;;;;;;;5.72;2.45;;;;;;;17.83;67.04;100036.84;5036441;28;20292;-65
2023/07/25 08:18:20;;;;;;;8.32;3.72;;;;;;;17.85;68.82;100069.00;5034605;28;20565;-64
2023/07/25 08:20:45;;;;;;;9.15;2.90;;;;;;;17.83;68.29;100066.44;5035730;28;20582;-65
2023/07/25 08:23:11;;;;;;;7.43;2.67;;;;;;;17.94;68.90;100069.41;5037234;28;20094;-65
2023/07/25 08:25:40;;;;;;;8.48;2.83;;;;;;;18.05;68.51;100070.66;5036630;28;20035;-65
2023/07/25 08:28:05;;;;;;;8.88;2.60;;;;;;;18.11;68.60;100073.78;5032566;28;20037;-65
2023/07/25 08:30:31;;;;;;;4.70;2.55;;;;;;;18.30;68.47;100071.94;5032038;28;20119;-64
2023/07/25 08:32:57;;;;;;;7.22;2.65;;;;;;;18.34;67.31;100055.16;5033473;28;20040;-66
2023/07/25 08:35:23;;;;;;;3.40;2.15;;;;;;;18.55;66.67;100061.06;5030232;28;20047;-65
2023/07/25 08:37:49;;;;;;;7.35;2.58;;;;;;;18.55;65.47;100036.66;5026449;28;20079;-65
2023/07/25 08:40:14;;;;;;;7.25;2.45;;;;;;;18.74;64.79;100030.34;5032029;28;20047;-64
2023/07/25 08:42:42;;;;;;;7.75;2.25;;;;;;;18.69;64.83;100034.16;5037548;28;20045;-65
2023/07/25 08:45:09;;;;;;;5.47;2.38;;;;;;;18.74;64.15;100025.13;5026273;28;20034;-64
2023/07/25 08:47:39;;;;;;;5.32;2.60;;;;;;;18.77;64.17;100032.81;5031696;28;20043;-64
2023/07/25 08:50:13;;;;;;;9.77;2.70;;;;;;;18.69;64.68;100047.25;5036911;28;20025;-65
2023/07/25 08:52:40;;;;;;;8.73;3.20;;;;;;;18.72;63.60;100024.38;5037767;28;20458;-65
2023/07/25 08:55:06;;;;;;;8.05;2.53;;;;;;;18.47;63.67;100037.88;5033459;28;20029;-65
2023/07/25 08:57:32;;;;;;;7.03;3.13;;;;;;;18.47;63.62;100040.50;5033079;28;20045;-64
2023/07/25 08:59:58;;;;;;;4.10;2.10;;;;;;;18.57;63.21;100042.66;5033281;28;20039;-63
2023/07/25 09:02:25;;;;;;;4.15;2.42;;;;;;;18.69;62.64;100035.00;5032096;28;20065;-64
2023/07/25 09:04:51;;;;;;;6.82;1.92;;;;;;;18.56;62.16;100028.72;5035160;28;20681;-64
2023/07/25 09:07:16;;;;;;;6.75;1.92;;;;;;;18.72;61.36;100023.50;5036143;28;20048;-63
2023/07/25 09:09:41;;;;;;;4.22;2.38;;;;;;;18.57;61.47;100022.56;5032036;28;20033;-64
2023/07/25 09:12:07;;;;;;;6.63;2.58;;;;;;;18.58;61.83;100036.50;5032871;28;20044;-64
2023/07/25 09:14:36;;;;;;;4.78;2.08;;;;;;;18.62;61.31;100009.22;5033220;28;20060;-65
2023/07/25 09:17:03;;;;;;;7.55;2.38;;;;;;;18.82;61.34;100027.34;5038691;28;20032;-64
2023/07/25 09:19:29;;;;;;;5.70;2.30;;;;;;;18.71;60.70;100012.19;5036618;28;20115;-64
2023/07/25 09:21:57;;;;;;;8.90;2.40;;;;;;;18.98;60.63;100017.75;5040296;28;20044;-65
2023/07/25 09:24:37;;;;;;;5.18;2.10;;;;;;;18.97;60.42;100032.59;5034230;28;20565;-64
2023/07/25 09:27:13;;;;;;;7.93;2.50;;;;;;;19.11;60.93;100036.25;5034169;28;20064;-65
2023/07/25 09:29:39;;;;;;;4.13;1.80;;;;;;;19.36;61.02;100039.19;5026249;28;20455;-64
2023/07/25 09:32:16;;;;;;;6.55;2.10;;;;;;;19.26;59.50;100007.44;5031116;28;20036;-64
2023/07/25 09:34:43;;;;;;;6.65;2.13;;;;;;;19.23;59.57;100012.84;5035215;28;20028;-64
2023/07/25 09:37:08;;;;;;;3.95;2.03;;;;;;;19.19;60.40;100040.16;5035752;28;20033;-65
2023/07/25 09:39:34;;;;;;;7.25;1.98;;;;;;;19.28;57.66;99983.75;5033452;28;20033;-64
2023/07/25 09:42:00;;;;;;;5.78;2.00;;;;;;;19.52;58.22;100005.97;5039182;28;20048;-64
2023/07/25 09:44:31;;;;;;;10.68;2.00;;;;;;;19.22;56.04;99964.00;5037107;28;20041;-62
2023/07/25 09:46:57;;;;;;;5.53;1.55;;;;;;;19.19;57.75;99998.22;5035003;28;20170;-63
2023/07/25 09:49:22;;;;;;;6.32;1.73;;;;;;;19.11;57.63;99997.81;5037964;28;20120;-65
2023/07/25 09:52:03;;;;;;;3.25;1.50;;;;;;;19.37;55.76;99984.09;5033848;28;20029;-65
2023/07/25 09:54:28;;;;;;;4.63;2.00;;;;;;;19.18;56.43;99990.44;5032607;28;20840;-65
2023/07/25 09:56:53;;;;;;;6.70;1.88;;;;;;;19.58;56.85;99998.59;5036351;28;20041;-66
2023/07/25 09:59:20;;;;;;;4.50;1.92;;;;;;;19.42;57.55;100018.75;5035659;28;20029;-65
2023/07/25 10:01:46;;;;;;;6.90;2.30;;;;;;;19.65;57.01;100000.88;5037662;28;20550;-65
2023/07/25 10:04:14;;;;;;;7.28;2.10;;;;;;;19.71;56.18;99982.16;5038612;28;20045;-63
2023/07/25 10:06:41;;;;;;;5.47;2.05;;;;;;;19.67;56.92;100001.63;5039590;28;20041;-62
2023/07/25 10:09:08;;;;;;;5.60;2.35;;;;;;;20.00;57.29;100013.66;5036808;28;20136;-60
2023/07/25 10:11:35;;;;;;;4.22;2.10;;;;;;;20.40;54.12;99954.34;5038660;28;20040;-63
2023/07/25 10:14:01;;;;;;;9.15;1.98;;;;;;;20.45;54.17;99954.09;5046839;28;20112;-64
2023/07/25 10:16:26;;;;;;;3.85;1.95;;;;;;;20.40;54.20;99958.75;5036875;28;20542;-64
2023/07/25 10:18:54;;;;;;;7.07;2.65;;;;;;;20.26;54.40;99966.63;5040141;28;20155;-65
2023/07/25 10:21:27;;;;;;;9.23;2.13;;;;;;;19.99;55.61;99982.25;5037662;28;20130;-65
2023/07/25 10:24:01;;;;;;;6.90;2.72;;;;;;;19.61;57.92;100023.78;5036661;28;20056;-66
2023/07/25 10:26:27;;;;;;;5.43;2.00;;;;;;;19.28;58.07;100037.03;5037091;28;20506;-64
2023/07/25 10:28:52;;;;;;;6.75;2.33;;;;;;;19.20;58.03;100038.38;5035529;28;20292;-64
2023/07/25 10:31:30;;;;;;;7.80;2.83;;;;;;;19.11;57.87;100028.41;5035837;28;20037;-64
2023/07/25 10:34:00;;;;;;;4.68;2.25;;;;;;;19.19;58.24;100040.16;5033853;28;20043;-64
2023/07/25 10:36:26;;;;;;;6.40;2.17;;;;;;;19.13;59.17;100060.59;5033410;28;20048;-64
2023/07/25 10:38:58;;;;;;;4.63;1.90;;;;;;;19.25;57.43;100025.88;5034346;28;20037;-64
2023/07/25 10:41:23;;;;;;;8.25;2.08;;;;;;;19.40;57.43;100033.72;5038354;28;20691;-63
2023/07/25 10:43:49;;;;;;;7.60;2.30;;;;;;;19.56;56.51;100015.34;5043636;28;20032;-63
2023/07/25 10:46:40;;;;;;;5.97;2.00;;;;;;;19.75;56.89;100020.38;5036332;28;20132;-64
2023/07/25 10:49:16;;;;;;;3.15;1.70;;;;;;;19.71;55.67;100006.59;5040297;28;20048;-64
2023/07/25 10:51:52;;;;;;;6.82;2.17;;;;;;;19.51;53.68;99975.44;5038162;28;20037;-64
2023/07/25 10:54:19;;;;;;;3.85;1.58;;;;;;;19.79;53.51;99978.19;5036732;28;20148;-64
2023/07/25 10:57:09;;;;;;;5.75;1.70;;;;;;;19.80;53.07;99969.38;5036083;28;20167;-64
2023/07/25 10:59:55;;;;;;;4.38;1.73;;;;;;;19.67;54.55;100009.50;5040920;28;20041;-63
2023/07/25 11:02:39;;;;;;;7.75;1.80;;;;;;;19.62;54.23;99994.84;5038020;28;20564;-63
2023/07/25 11:05:13;;;;;;;7.35;1.80;;;;;;;19.69;54.09;99994.50;5039008;28;20719;-63
2023/07/25 11:07:40;;;;;;;8.18;2.08;;;;;;;19.92;53.44;99971.28;5038689;28;20043;-63
2023/07/25 11:10:06;;;;;;;7.68;1.83;;;;;;;19.97;53.04;99971.03;5032613;28;20094;-64
2023/07/25 11:12:32;;;;;;;8.60;2.05;;;;;;;20.12;51.59;99942.09;5041586;28;20214;-64
2023/07/25 11:14:58;;;;;;;4.10;1.40;;;;;;;20.24;51.92;99958.88;5039519;28;20034;-63
2023/07/25 11:17:27;;;;;;;6.43;1.80;;;;;;;20.16;51.69;99959.31;5037933;28;20037;-64
2023/07/25 11:19:53;;;;;;;4.90;1.83;;;;;;;20.09;52.15;99965.03;5037382;28;20044;-64